Time;durP1;ratioP1;P1;durP2;ratioP2;P2;SDS_P1;SDS_P2;PMS_P1;PMS_P2;Temp;Humidity;BMP_temperature;BMP_pressure;BME280_temperature;BME280_humidity;BME280_pressure;Samples;Min_cycle;Max_cycle;Signal;HPM_P1;HPM_P2
2021/10/13 00:02:11;;;;;;;8.02;6.20;;;8.20;99.90;;;;;;4873503;29;20368;-74
2021/10/13 00:04:39;;;;;;;7.25;5.97;;;8.20;99.90;;;;;;4872801;29;20242;-74
2021/10/13 00:07:06;;;;;;;6.90;6.20;;;8.20;99.90;;;;;;4872743;29;20215;-74
2021/10/13 00:09:33;;;;;;;6.45;5.10;;;8.20;99.90;;;;;;4873274;29;20280;-75
2021/10/13 00:12:00;;;;;;;7.15;5.40;;;8.20;99.90;;;;;;4873621;29;20207;-74
2021/10/13 00:14:27;;;;;;;7.05;5.40;;;8.10;99.90;;;;;;4872491;29;20227;-74
2021/10/13 00:17:02;;;;;;;6.22;5.60;;;8.00;99.90;;;;;;4873124;29;20695;-75
2021/10/13 00:19:30;;;;;;;6.65;4.97;;;8.00;99.90;;;;;;4873386;29;20221;-75
2021/10/13 00:21:58;;;;;;;6.55;5.53;;;8.00;99.90;;;;;;4872892;29;20298;-75
2021/10/13 00:24:25;;;;;;;7.50;5.22;;;8.00;99.90;;;;;;4872827;29;20283;-74
2021/10/13 00:26:52;;;;;;;6.72;5.53;;;8.00;99.90;;;;;;4872612;29;20735;-75
2021/10/13 00:29:19;;;;;;;7.03;5.88;;;8.00;99.90;;;;;;4872887;29;20306;-75
2021/10/13 00:31:47;;;;;;;6.47;5.22;;;7.90;99.90;;;;;;4873309;29;20217;-75
2021/10/13 00:34:15;;;;;;;7.72;5.75;;;7.90;99.90;;;;;;4872803;29;20213;-75
2021/10/13 00:36:43;;;;;;;6.63;5.30;;;7.90;99.90;;;;;;4872685;29;20210;-75
2021/10/13 00:39:11;;;;;;;6.63;5.35;;;7.90;99.90;;;;;;4873390;29;20211;-75
2021/10/13 00:41:38;;;;;;;5.93;5.32;;;7.90;99.90;;;;;;4873082;29;20234;-74
2021/10/13 00:44:05;;;;;;;6.75;6.03;;;7.90;99.90;;;;;;4873378;29;20303;-75
2021/10/13 00:46:32;;;;;;;8.25;5.60;;;7.80;99.90;;;;;;4872946;29;20271;-75
2021/10/13 00:49:01;;;;;;;6.65;5.78;;;7.80;99.90;;;;;;4873544;29;20654;-74
2021/10/13 00:51:29;;;;;;;8.50;5.20;;;7.80;99.90;;;;;;4872126;29;20203;-75
2021/10/13 00:53:57;;;;;;;5.60;4.93;;;7.70;99.90;;;;;;4872164;29;20755;-74
2021/10/13 00:56:26;;;;;;;6.75;5.38;;;7.70;99.90;;;;;;4871818;29;20275;-74
2021/10/13 00:58:53;;;;;;;7.35;5.03;;;7.70;99.90;;;;;;4872218;29;20235;-75
2021/10/13 01:01:25;;;;;;;7.75;5.57;;;7.60;99.90;;;;;;4872767;29;20231;-74
2021/10/13 01:04:05;;;;;;;5.10;4.55;;;7.60;99.90;;;;;;4871723;29;20218;-75
2021/10/13 01:06:44;;;;;;;6.95;5.40;;;7.50;99.90;;;;;;4871483;29;20243;-75
2021/10/13 01:09:19;;;;;;;5.93;5.03;;;7.50;99.90;;;;;;4872269;29;20297;-75
2021/10/13 01:12:09;;;;;;;8.95;6.15;;;7.50;99.90;;;;;;4871841;29;20215;-75
2021/10/13 01:14:43;;;;;;;7.05;5.50;;;7.50;99.90;;;;;;4871807;29;20231;-75
2021/10/13 01:17:21;;;;;;;6.50;5.55;;;7.50;99.90;;;;;;4871415;29;20306;-74
2021/10/13 01:20:00;;;;;;;6.60;5.55;;;7.50;99.90;;;;;;4872347;29;20758;-74
2021/10/13 01:22:52;;;;;;;5.90;5.18;;;7.50;99.90;;;;;;4871741;29;20234;-74
2021/10/13 01:25:39;;;;;;;6.22;5.22;;;7.50;99.90;;;;;;4872004;29;20263;-74
2021/10/13 01:28:12;;;;;;;5.85;5.32;;;7.40;99.90;;;;;;4871536;29;20210;-74
2021/10/13 01:30:43;;;;;;;8.02;5.85;;;7.40;99.90;;;;;;4872010;29;20302;-74
2021/10/13 01:33:17;;;;;;;5.93;5.32;;;7.50;99.90;;;;;;4871771;29;20211;-74
2021/10/13 01:35:49;;;;;;;5.82;5.32;;;7.40;99.90;;;;;;4870986;29;20231;-74
2021/10/13 01:38:20;;;;;;;7.10;5.65;;;7.50;99.90;;;;;;4871752;29;20206;-74
2021/10/13 01:40:49;;;;;;;6.57;5.82;;;7.50;99.90;;;;;;4871241;29;20227;-75
2021/10/13 01:43:19;;;;;;;6.40;5.60;;;7.50;99.90;;;;;;4876101;29;20207;-75
2021/10/13 01:45:48;;;;;;;6.32;5.32;;;7.50;99.90;;;;;;4875154;29;20231;-75
2021/10/13 01:48:17;;;;;;;7.13;6.03;;;7.50;99.90;;;;;;4961514;23;20226;-72
2021/10/13 01:50:46;;;;;;;7.82;6.15;;;7.60;99.90;;;;;;4895069;29;20209;-72
2021/10/13 01:53:15;;;;;;;8.10;6.53;;;7.50;99.90;;;;;;4894928;29;20265;-72
2021/10/13 01:55:43;;;;;;;7.35;6.22;;;7.50;99.90;;;;;;4881094;29;20234;-72
2021/10/13 01:58:11;;;;;;;7.53;6.00;;;7.50;99.90;;;;;;4876328;29;20996;-71
2021/10/13 02:00:41;;;;;;;6.78;4.90;;;7.50;99.90;;;;;;4876635;29;20207;-72
2021/10/13 02:03:09;;;;;;;7.18;5.15;;;7.50;99.90;;;;;;4876274;29;20211;-71
2021/10/13 02:05:39;;;;;;;8.30;5.90;;;7.50;99.90;;;;;;4876594;29;20259;-72
2021/10/13 02:08:07;;;;;;;6.15;5.25;;;7.50;99.90;;;;;;4881163;29;20198;-72
2021/10/13 02:10:36;;;;;;;6.07;5.45;;;7.50;99.90;;;;;;4895205;29;20619;-72
2021/10/13 02:13:05;;;;;;;6.65;5.63;;;7.50;99.90;;;;;;4894925;29;20207;-72
2021/10/13 02:15:33;;;;;;;5.97;5.38;;;7.50;99.90;;;;;;4894758;29;20233;-72
2021/10/13 02:18:01;;;;;;;7.15;5.38;;;7.50;99.90;;;;;;4893628;29;20206;-72
2021/10/13 02:20:30;;;;;;;5.97;5.38;;;7.50;99.90;;;;;;4895527;29;20550;-72
2021/10/13 02:22:59;;;;;;;8.32;5.32;;;7.50;99.90;;;;;;4897891;29;20266;-72
2021/10/13 02:25:34;;;;;;;5.20;4.70;;;7.50;99.90;;;;;;4898926;29;20643;-72
2021/10/13 02:28:04;;;;;;;7.95;5.38;;;7.50;99.90;;;;;;4898369;29;20210;-72
2021/10/13 02:30:31;;;;;;;5.78;4.50;;;7.50;99.90;;;;;;4899211;29;20207;-72
2021/10/13 02:32:59;;;;;;;5.80;5.20;;;7.50;99.90;;;;;;4898887;29;20207;-72
2021/10/13 02:35:27;;;;;;;5.47;4.50;;;7.50;99.90;;;;;;4898972;29;20234;-71
2021/10/13 02:37:54;;;;;;;7.05;5.13;;;7.50;99.90;;;;;;4898197;29;20589;-71
2021/10/13 02:40:20;;;;;;;5.97;5.38;;;7.50;99.90;;;;;;4898773;29;20671;-71
2021/10/13 02:42:47;;;;;;;9.05;5.10;;;7.50;99.90;;;;;;4898433;29;20651;-71
2021/10/13 02:45:14;;;;;;;5.63;5.13;;;7.50;99.90;;;;;;4898537;29;20230;-71
2021/10/13 02:47:54;;;;;;;5.88;5.25;;;7.50;99.90;;;;;;4898207;29;20840;-71
2021/10/13 02:50:25;;;;;;;8.23;5.85;;;7.50;99.90;;;;;;4898591;29;20210;-72
2021/10/13 02:53:01;;;;;;;6.93;5.57;;;7.50;99.90;;;;;;4898463;29;20207;-71
2021/10/13 02:55:33;;;;;;;7.88;5.25;;;7.40;99.90;;;;;;4898372;29;20250;-72
2021/10/13 02:58:05;;;;;;;5.50;4.82;;;7.40;99.90;;;;;;4897935;29;20709;-72
2021/10/13 03:00:34;;;;;;;5.32;4.82;;;7.40;99.90;;;;;;4898417;29;20211;-72
2021/10/13 03:03:05;;;;;;;6.47;5.50;;;7.40;99.90;;;;;;4898288;29;20233;-71
2021/10/13 03:05:33;;;;;;;6.15;5.43;;;7.40;99.90;;;;;;4898356;29;20302;-72
2021/10/13 03:08:06;;;;;;;5.72;5.13;;;7.40;99.90;;;;;;4897542;29;20214;-71
2021/10/13 03:10:34;;;;;;;7.43;5.88;;;7.40;99.90;;;;;;4898393;29;20577;-71
2021/10/13 03:13:04;;;;;;;6.22;5.63;;;7.40;99.90;;;;;;4898005;29;20239;-72
2021/10/13 03:15:31;;;;;;;6.60;5.50;;;7.40;99.90;;;;;;4898381;29;20575;-72
2021/10/13 03:17:59;;;;;;;10.00;6.72;;;7.40;99.90;;;;;;4897485;29;20217;-72
2021/10/13 03:20:29;;;;;;;8.48;5.70;;;7.40;99.90;;;;;;4898237;29;20213;-72
2021/10/13 03:22:58;;;;;;;7.65;5.43;;;7.40;99.90;;;;;;4897769;29;20634;-72
2021/10/13 03:25:28;;;;;;;6.10;5.50;;;7.40;99.90;;;;;;4897815;29;20253;-72
2021/10/13 03:27:55;;;;;;;7.45;5.75;;;7.40;99.90;;;;;;4897488;29;20593;-72
2021/10/13 03:30:22;;;;;;;6.90;5.43;;;7.40;99.90;;;;;;4897761;29;20214;-72
2021/10/13 03:32:50;;;;;;;6.00;5.18;;;7.40;99.90;;;;;;4897272;29;20229;-72
2021/10/13 03:35:24;;;;;;;5.80;4.97;;;7.40;99.90;;;;;;4890958;29;20227;-72
2021/10/13 03:37:51;;;;;;;6.45;5.80;;;7.40;99.90;;;;;;4885878;29;20198;-72
2021/10/13 03:40:18;;;;;;;6.28;5.28;;;7.40;99.90;;;;;;4887963;29;20198;-71
2021/10/13 03:42:47;;;;;;;5.97;5.38;;;7.40;99.90;;;;;;4888767;29;20227;-71
2021/10/13 03:45:17;;;;;;;7.78;6.82;;;7.40;99.90;;;;;;4889276;29;20637;-71
2021/10/13 03:47:45;;;;;;;8.48;5.97;;;7.40;99.90;;;;;;4888164;29;20211;-71
2021/10/13 03:50:12;;;;;;;10.70;6.28;;;7.40;99.90;;;;;;4887066;29;20206;-71
2021/10/13 03:52:40;;;;;;;8.02;6.70;;;7.40;99.90;;;;;;4887465;29;20210;-71
2021/10/13 03:55:08;;;;;;;10.00;6.53;;;7.40;99.90;;;;;;4880436;29;20234;-71
2021/10/13 03:57:35;;;;;;;8.40;6.65;;;7.40;99.90;;;;;;4877188;29;20221;-70
2021/10/13 04:00:05;;;;;;;9.63;7.70;;;7.40;99.90;;;;;;4884248;29;20469;-70
2021/10/13 04:02:31;;;;;;;8.50;7.10;;;7.40;99.90;;;;;;4880847;29;20223;-70
2021/10/13 04:04:58;;;;;;;8.57;6.75;;;7.40;99.90;;;;;;4886901;29;20966;-70
2021/10/13 04:07:25;;;;;;;9.45;7.03;;;7.40;99.90;;;;;;4885948;29;20213;-71
2021/10/13 04:09:52;;;;;;;8.02;6.50;;;7.40;99.90;;;;;;4887141;29;20218;-70
2021/10/13 04:12:18;;;;;;;8.77;6.93;;;7.40;99.90;;;;;;4882021;29;20199;-70
2021/10/13 04:14:45;;;;;;;7.82;6.07;;;7.40;99.90;;;;;;4885246;29;20226;-70
2021/10/13 04:17:14;;;;;;;7.18;5.43;;;7.40;99.90;;;;;;4886308;29;20203;-71
2021/10/13 04:19:40;;;;;;;6.45;5.80;;;7.40;99.90;;;;;;4886086;29;20626;-70
2021/10/13 04:22:07;;;;;;;6.80;6.03;;;7.40;99.90;;;;;;4884491;29;20230;-71
2021/10/13 04:24:34;;;;;;;7.95;6.07;;;7.50;99.90;;;;;;4886272;29;20226;-70
2021/10/13 04:27:00;;;;;;;11.75;7.55;;;7.60;99.90;;;;;;4885580;29;20275;-70
2021/10/13 04:29:27;;;;;;;9.98;7.32;;;7.80;99.90;;;;;;4879826;29;20705;-71
2021/10/13 04:31:54;;;;;;;10.15;7.50;;;7.70;99.90;;;;;;4877261;29;20199;-70
2021/10/13 04:34:22;;;;;;;9.93;7.95;;;7.70;99.90;;;;;;4876697;29;20234;-71
2021/10/13 04:36:48;;;;;;;7.00;6.25;;;7.60;99.90;;;;;;4876449;29;20214;-71
2021/10/13 04:39:15;;;;;;;10.82;6.70;;;7.60;99.90;;;;;;4877730;29;20207;-70
2021/10/13 04:41:42;;;;;;;7.68;6.35;;;7.50;99.90;;;;;;4877349;29;20230;-71
2021/10/13 04:44:09;;;;;;;9.20;6.38;;;7.50;99.90;;;;;;4877018;29;20215;-71
2021/10/13 04:46:35;;;;;;;15.05;7.55;;;7.50;99.90;;;;;;4877192;29;20222;-71
2021/10/13 04:49:02;;;;;;;8.98;7.20;;;7.40;99.90;;;;;;4877104;29;20230;-71
2021/10/13 04:51:31;;;;;;;7.15;6.45;;;7.40;99.90;;;;;;4877477;29;20218;-71
2021/10/13 04:53:57;;;;;;;8.02;7.03;;;7.40;99.90;;;;;;4876644;29;20676;-71
2021/10/13 04:56:24;;;;;;;9.00;6.80;;;7.40;99.90;;;;;;4876980;29;20212;-72
2021/10/13 04:58:51;;;;;;;8.43;7.15;;;7.40;99.90;;;;;;4877105;29;20671;-71
2021/10/13 05:01:17;;;;;;;11.80;7.78;;;7.40;99.90;;;;;;4881645;29;20215;-71
2021/10/13 05:03:44;;;;;;;9.85;7.60;;;7.30;99.90;;;;;;4895761;29;20233;-71
2021/10/13 05:06:11;;;;;;;13.60;7.82;;;7.30;99.90;;;;;;4894806;29;20238;-71
2021/10/13 05:08:39;;;;;;;10.73;8.02;;;7.30;99.90;;;;;;4895953;29;20583;-71
2021/10/13 05:11:05;;;;;;;8.68;7.30;;;7.30;99.90;;;;;;4895456;29;20221;-71
2021/10/13 05:13:32;;;;;;;10.30;7.45;;;7.30;99.90;;;;;;4895474;29;20217;-71
2021/10/13 05:15:59;;;;;;;9.27;7.10;;;7.20;99.90;;;;;;4895099;29;20231;-71
2021/10/13 05:18:25;;;;;;;12.02;8.00;;;7.20;99.90;;;;;;4895511;29;20202;-71
2021/10/13 05:20:52;;;;;;;10.40;8.15;;;7.20;99.90;;;;;;4895419;29;20211;-71
2021/10/13 05:23:19;;;;;;;11.68;7.90;;;7.20;99.90;;;;;;4895835;29;20226;-71
2021/10/13 05:25:47;;;;;;;8.77;7.75;;;7.20;99.90;;;;;;4894872;29;20281;-71
2021/10/13 05:28:14;;;;;;;11.57;7.88;;;7.10;99.90;;;;;;4895583;29;20229;-71
2021/10/13 05:30:40;;;;;;;9.55;7.65;;;7.10;99.90;;;;;;4895466;29;20210;-71
2021/10/13 05:33:07;;;;;;;10.35;7.60;;;7.10;99.90;;;;;;4895229;29;20598;-71
2021/10/13 05:35:34;;;;;;;9.43;7.20;;;7.10;99.90;;;;;;4895165;29;20234;-71
2021/10/13 05:38:00;;;;;;;9.88;7.63;;;7.10;99.90;;;;;;4894446;29;20820;-71
2021/10/13 05:40:27;;;;;;;9.57;7.22;;;7.10;99.90;;;;;;4895567;29;20210;-71
2021/10/13 05:42:55;;;;;;;9.13;6.90;;;7.00;99.90;;;;;;4894969;29;20223;-71
2021/10/13 05:45:22;;;;;;;10.80;8.75;;;7.00;99.90;;;;;;4895196;29;20628;-71
2021/10/13 05:47:49;;;;;;;10.70;7.85;;;7.00;99.90;;;;;;4894611;29;20217;-71
2021/10/13 05:50:16;;;;;;;10.68;8.65;;;7.00;99.90;;;;;;4895090;29;20209;-71
2021/10/13 05:52:43;;;;;;;12.50;8.98;;;7.00;99.90;;;;;;4895187;29;20213;-71
2021/10/13 05:55:10;;;;;;;10.18;8.13;;;7.00;99.90;;;;;;4894978;29;20929;-71
2021/10/13 05:57:37;;;;;;;11.32;8.45;;;7.00;99.90;;;;;;4899327;29;20246;-71
2021/10/13 06:00:07;;;;;;;12.73;8.40;;;7.00;99.90;;;;;;4901456;29;20206;-71
2021/10/13 06:02:34;;;;;;;8.02;7.15;;;7.00;99.90;;;;;;4901432;29;20229;-71
2021/10/13 06:05:00;;;;;;;11.13;8.25;;;7.00;99.90;;;;;;4901475;29;20233;-71
2021/10/13 06:07:27;;;;;;;12.63;8.38;;;7.00;99.90;;;;;;4901374;29;20210;-71
2021/10/13 06:09:54;;;;;;;7.85;6.90;;;7.00;99.90;;;;;;4901256;29;20678;-71
2021/10/13 06:12:21;;;;;;;10.73;8.18;;;7.00;99.90;;;;;;4901675;29;20209;-71
2021/10/13 06:14:47;;;;;;;10.05;7.95;;;7.00;99.90;;;;;;4901099;29;20229;-71
2021/10/13 06:17:16;;;;;;;11.45;7.32;;;7.10;99.90;;;;;;4901143;29;20206;-70
2021/10/13 06:19:42;;;;;;;9.48;7.90;;;7.10;99.90;;;;;;4901306;29;20206;-71
2021/10/13 06:22:09;;;;;;;8.23;6.82;;;7.10;99.90;;;;;;4901462;29;20221;-70
2021/10/13 06:24:36;;;;;;;13.20;8.90;;;7.10;99.90;;;;;;4901467;29;20226;-70
2021/10/13 06:27:03;;;;;;;14.98;8.32;;;7.20;99.90;;;;;;4900644;29;20218;-70
2021/10/13 06:29:30;;;;;;;11.43;7.70;;;7.20;99.90;;;;;;4901800;29;20210;-70
2021/10/13 06:31:57;;;;;;;11.48;8.30;;;7.20;99.90;;;;;;4884168;29;20274;-70
2021/10/13 06:34:25;;;;;;;9.50;7.28;;;7.20;99.90;;;;;;4882698;29;20236;-70
2021/10/13 06:36:52;;;;;;;10.48;8.07;;;7.20;99.90;;;;;;4882684;29;20619;-70
2021/10/13 06:39:18;;;;;;;9.50;8.50;;;7.20;99.90;;;;;;4882852;29;20207;-70
2021/10/13 06:41:45;;;;;;;14.00;10.35;;;7.20;99.90;;;;;;4882735;29;20218;-70
2021/10/13 06:44:12;;;;;;;17.90;9.32;;;7.20;99.90;;;;;;4882396;29;20227;-70
2021/10/13 06:46:40;;;;;;;14.00;10.45;;;7.20;99.90;;;;;;4882180;29;20531;-70
2021/10/13 06:49:06;;;;;;;12.70;9.15;;;7.20;99.90;;;;;;4882778;29;20593;-70
2021/10/13 06:51:34;;;;;;;12.75;8.90;;;7.20;99.90;;;;;;4882573;29;20207;-70
2021/10/13 06:54:01;;;;;;;13.20;9.18;;;7.30;99.90;;;;;;4882341;29;20203;-70
2021/10/13 06:56:28;;;;;;;14.30;8.30;;;7.30;99.90;;;;;;4882125;29;20291;-70
2021/10/13 06:58:55;;;;;;;15.30;9.70;;;7.30;99.90;;;;;;4882552;29;20218;-70
2021/10/13 07:01:22;;;;;;;11.57;7.13;;;7.40;99.90;;;;;;4880552;29;20210;-70
2021/10/13 07:03:48;;;;;;;9.70;7.35;;;7.40;99.90;;;;;;4882291;29;20237;-70
2021/10/13 07:06:15;;;;;;;11.02;7.75;;;7.50;99.90;;;;;;4882121;29;20632;-70
2021/10/13 07:08:43;;;;;;;14.25;7.68;;;7.50;99.90;;;;;;4880680;29;20207;-70
2021/10/13 07:11:10;;;;;;;9.40;7.78;;;7.60;99.90;;;;;;4879680;29;20211;-70
2021/10/13 07:13:37;;;;;;;8.45;7.35;;;7.60;99.90;;;;;;4879424;29;20852;-70
2021/10/13 07:16:04;;;;;;;11.05;7.30;;;7.70;99.90;;;;;;4878865;29;20711;-70
2021/10/13 07:18:31;;;;;;;8.45;6.38;;;7.70;99.90;;;;;;4880879;29;20609;-70
2021/10/13 07:20:58;;;;;;;11.88;6.90;;;7.70;99.90;;;;;;4879653;29;20211;-71
2021/10/13 07:23:25;;;;;;;10.10;6.45;;;7.60;99.90;;;;;;4880295;29;20234;-71
2021/10/13 07:25:53;;;;;;;8.90;6.90;;;7.60;99.90;;;;;;4879477;29;20242;-71
2021/10/13 07:28:20;;;;;;;8.38;6.05;;;7.60;99.90;;;;;;4880427;29;20226;-70
2021/10/13 07:30:47;;;;;;;6.70;5.63;;;7.60;99.90;;;;;;4879016;29;20215;-70
2021/10/13 07:33:13;;;;;;;8.93;6.03;;;7.60;99.90;;;;;;4878992;29;20271;-70
2021/10/13 07:35:41;;;;;;;7.13;6.05;;;7.60;99.90;;;;;;4878529;29;20726;-70
2021/10/13 07:38:10;;;;;;;9.70;6.60;;;7.60;99.90;;;;;;4878669;29;20207;-70
2021/10/13 07:40:37;;;;;;;8.43;6.68;;;7.60;99.90;;;;;;4879354;29;20242;-70
2021/10/13 07:43:05;;;;;;;8.02;6.82;;;7.70;99.90;;;;;;4878699;29;20242;-70
2021/10/13 07:45:32;;;;;;;9.93;6.80;;;7.70;99.90;;;;;;4879184;29;20226;-70
2021/10/13 07:47:59;;;;;;;10.70;6.30;;;7.90;99.90;;;;;;4949073;23;20238;-75
2021/10/13 07:50:26;;;;;;;9.95;6.35;;;8.30;99.90;;;;;;4897199;29;20199;-76
2021/10/13 07:52:53;;;;;;;10.43;6.35;;;8.70;99.90;;;;;;4897143;29;20666;-77
2021/10/13 07:55:19;;;;;;;10.55;7.03;;;8.90;99.90;;;;;;4886231;29;20350;-77
2021/10/13 07:57:46;;;;;;;12.32;6.40;;;9.20;99.90;;;;;;4877915;29;20207;-77
2021/10/13 08:00:16;;;;;;;7.82;5.70;;;9.50;99.90;;;;;;4878282;29;20236;-77
2021/10/13 08:02:45;;;;;;;7.20;6.35;;;9.70;99.90;;;;;;4895729;29;20207;-77
2021/10/13 08:05:11;;;;;;;9.13;6.20;;;10.00;99.90;;;;;;4896003;29;20766;-77
2021/10/13 08:07:39;;;;;;;6.57;4.97;;;10.20;99.90;;;;;;4895399;29;20202;-77
2021/10/13 08:10:06;;;;;;;9.35;5.65;;;10.50;99.90;;;;;;4896398;29;20194;-77
2021/10/13 08:12:33;;;;;;;8.00;5.40;;;10.50;99.90;;;;;;4896436;29;20209;-78
2021/10/13 08:14:59;;;;;;;6.93;5.13;;;10.80;99.90;;;;;;4896692;29;20234;-77
2021/10/13 08:17:28;;;;;;;10.50;5.35;;;11.00;99.90;;;;;;4896534;29;20244;-77
2021/10/13 08:19:55;;;;;;;7.93;5.90;;;10.80;99.90;;;;;;4884368;29;20211;-76
2021/10/13 08:22:23;;;;;;;6.57;5.20;;;10.50;99.90;;;;;;4876420;29;20297;-77
2021/10/13 08:24:51;;;;;;;10.27;4.70;;;10.40;99.90;;;;;;4876293;29;20239;-76
2021/10/13 08:27:19;;;;;;;9.05;4.85;;;10.50;99.90;;;;;;4876473;29;20262;-74
2021/10/13 08:29:47;;;;;;;6.75;4.55;;;10.70;99.90;;;;;;4876646;29;20219;-75
2021/10/13 08:32:15;;;;;;;5.13;3.95;;;11.10;99.90;;;;;;4876564;29;20267;-75
2021/10/13 08:34:43;;;;;;;7.60;4.53;;;11.40;99.90;;;;;;4876086;29;20327;-74
2021/10/13 08:37:11;;;;;;;5.78;4.80;;;11.80;99.90;;;;;;4876170;29;20217;-74
2021/10/13 08:39:37;;;;;;;6.22;4.47;;;12.10;99.90;;;;;;4875949;29;20207;-75
2021/10/13 08:42:06;;;;;;;5.88;4.10;;;12.50;99.90;;;;;;4876691;29;20736;-75
2021/10/13 08:44:34;;;;;;;5.60;4.30;;;12.90;99.90;;;;;;4876441;29;20608;-75
2021/10/13 08:47:02;;;;;;;6.10;3.53;;;13.10;99.90;;;;;;4875683;29;20215;-74
2021/10/13 08:49:29;;;;;;;4.93;3.60;;;12.90;99.90;;;;;;4876595;29;20290;-75
2021/10/13 08:51:58;;;;;;;4.68;4.20;;;12.70;99.90;;;;;;4875956;29;20590;-73
2021/10/13 08:54:25;;;;;;;5.15;3.17;;;12.70;99.90;;;;;;4876129;29;20596;-73
2021/10/13 08:56:56;;;;;;;3.40;3.05;;;12.50;99.90;;;;;;4875728;29;20305;-73
2021/10/13 08:59:43;;;;;;;5.88;3.05;;;12.30;99.90;;;;;;4876375;29;20628;-73
2021/10/13 09:02:11;;;;;;;3.15;2.58;;;12.00;99.90;;;;;;4881490;29;20548;-73
2021/10/13 09:04:39;;;;;;;6.65;3.88;;;11.70;99.90;;;;;;4894423;29;20679;-72
2021/10/13 09:07:08;;;;;;;6.88;4.03;;;11.20;99.90;;;;;;4894297;29;20236;-73
2021/10/13 09:09:48;;;;;;;7.35;4.30;;;10.80;99.90;;;;;;4895146;29;20647;-72
2021/10/13 09:12:14;;;;;;;6.55;3.92;;;10.60;99.90;;;;;;4894302;29;20209;-73
2021/10/13 09:14:41;;;;;;;5.63;4.30;;;10.50;99.90;;;;;;4894195;29;20231;-74
2021/10/13 09:17:09;;;;;;;7.35;5.65;;;10.30;99.90;;;;;;4894208;29;20215;-74
2021/10/13 09:19:38;;;;;;;7.00;5.88;;;10.10;99.90;;;;;;4893983;29;20215;-73
2021/10/13 09:22:08;;;;;;;8.75;7.03;;;9.80;99.90;;;;;;4894578;29;20211;-75
2021/10/13 09:24:41;;;;;;;7.93;6.40;;;9.70;99.90;;;;;;4874553;29;20235;-75
2021/10/13 09:27:25;;;;;;;8.88;6.30;;;9.50;99.90;;;;;;4876185;29;20544;-75
2021/10/13 09:29:58;;;;;;;8.55;6.50;;;9.30;99.90;;;;;;4875682;29;20215;-74
2021/10/13 09:32:26;;;;;;;7.72;6.18;;;9.20;99.90;;;;;;4875438;29;20211;-75
2021/10/13 09:34:58;;;;;;;6.25;5.18;;;9.10;99.90;;;;;;4875755;29;20227;-74
2021/10/13 09:37:43;;;;;;;7.55;5.28;;;9.10;99.90;;;;;;4875396;29;20686;-74
2021/10/13 09:40:11;;;;;;;8.25;6.90;;;9.00;99.90;;;;;;4876480;29;20213;-75
2021/10/13 09:42:38;;;;;;;12.23;6.85;;;9.00;99.90;;;;;;4876021;29;20237;-73
2021/10/13 09:45:06;;;;;;;10.90;8.50;;;9.00;99.90;;;;;;4875563;29;20234;-74
2021/10/13 09:47:34;;;;;;;15.00;9.55;;;9.00;99.90;;;;;;4875739;29;20755;-74
2021/10/13 09:50:02;;;;;;;14.77;8.98;;;9.10;99.90;;;;;;4875461;29;20218;-73
2021/10/13 09:52:31;;;;;;;12.73;10.23;;;9.10;99.90;;;;;;4876170;29;20217;-74
2021/10/13 09:55:00;;;;;;;14.70;9.23;;;9.20;99.90;;;;;;4876018;29;20234;-73
2021/10/13 09:57:30;;;;;;;15.95;10.90;;;9.30;99.90;;;;;;4875272;29;20292;-74
2021/10/13 10:00:08;;;;;;;14.43;9.95;;;9.60;99.90;;;;;;4893025;29;20229;-74
2021/10/13 10:02:37;;;;;;;10.35;7.85;;;10.20;99.90;;;;;;4894559;29;20561;-73
2021/10/13 10:05:08;;;;;;;11.20;7.57;;;10.80;99.90;;;;;;4880573;29;20231;-73
2021/10/13 10:07:42;;;;;;;7.40;6.70;;;11.50;99.90;;;;;;4875275;29;20207;-74
2021/10/13 10:10:14;;;;;;;5.68;5.13;;;12.00;99.90;;;;;;4875769;29;20214;-74
2021/10/13 10:13:02;;;;;;;7.13;4.63;;;12.50;99.90;;;;;;4875780;29;20414;-71
2021/10/13 10:15:34;;;;;;;5.50;4.43;;;12.90;99.90;;;;;;4875315;29;20234;-71
2021/10/13 10:18:01;;;;;;;7.43;3.78;;;13.30;99.90;;;;;;4875351;29;20214;-72
2021/10/13 10:20:37;;;;;;;4.00;3.45;;;13.40;99.90;;;;;;4876072;29;20221;-73
2021/10/13 10:23:30;;;;;;;5.18;3.13;;;13.70;99.90;;;;;;4875331;29;20206;-72
2021/10/13 10:25:58;;;;;;;4.28;3.42;;;14.00;99.90;;;;;;4875086;29;20231;-73
2021/10/13 10:28:53;;;;;;;2.80;2.33;;;14.30;99.90;;;;;;4875255;29;20215;-73
2021/10/13 10:31:41;;;;;;;4.90;2.95;;;14.00;99.90;;;;;;4875822;29;20475;-73
2021/10/13 10:34:10;;;;;;;3.40;3.10;;;13.60;99.90;;;;;;4875400;29;20203;-72
2021/10/13 10:37:09;;;;;;;4.05;3.10;;;13.30;99.90;;;;;;4875037;29;20488;-72
2021/10/13 10:40:11;;;;;;;6.60;2.43;;;13.10;99.90;;;;;;4875885;29;20618;-73
2021/10/13 10:43:03;;;;;;;3.17;2.70;;;13.50;99.90;;;;;;4875881;29;20485;-72
2021/10/13 10:45:41;;;;;;;3.80;2.40;;;13.90;99.90;;;;;;4879077;29;21034;-73
2021/10/13 10:48:14;;;;;;;3.13;2.80;;;14.20;99.90;;;;;;4878743;29;20479;-73
2021/10/13 10:50:54;;;;;;;3.37;2.80;;;14.10;99.90;;;;;;4882536;29;20222;-72
2021/10/13 10:53:29;;;;;;;4.80;3.50;;;13.60;99.90;;;;;;4895849;29;20836;-74
2021/10/13 10:56:17;;;;;;;4.93;3.20;;;13.30;99.90;;;;;;4897290;29;21140;-75
2021/10/13 10:59:18;;;;;;;4.03;3.13;;;12.90;99.90;;;;;;4897820;29;20477;-74
2021/10/13 11:02:08;;;;;;;4.85;2.97;;;12.50;99.90;;;;;;4886871;29;20574;-75
2021/10/13 11:04:36;;;;;;;3.17;2.80;;;12.20;99.90;;;;;;4878625;29;20231;-75
2021/10/13 11:07:04;;;;;;;5.05;3.60;;;12.00;99.90;;;;;;4878278;29;20684;-74
2021/10/13 11:09:31;;;;;;;6.78;3.45;;;11.70;99.90;;;;;;4879457;29;20211;-73
2021/10/13 11:11:59;;;;;;;6.75;3.90;;;11.40;99.90;;;;;;4878598;29;20215;-74
2021/10/13 11:14:25;;;;;;;7.13;4.35;;;11.30;99.90;;;;;;4879027;29;20223;-73
2021/10/13 11:16:55;;;;;;;6.20;4.60;;;11.20;99.90;;;;;;4878144;29;20219;-72
2021/10/13 11:19:24;;;;;;;5.07;3.80;;;11.20;99.90;;;;;;4878611;29;20280;-74
2021/10/13 11:22:03;;;;;;;5.05;3.63;;;11.00;99.90;;;;;;4878518;29;20212;-73
2021/10/13 11:24:31;;;;;;;4.43;3.60;;;11.10;99.90;;;;;;4878261;29;20660;-73
2021/10/13 11:26:59;;;;;;;5.85;3.60;;;11.70;99.90;;;;;;4877820;29;20238;-73
2021/10/13 11:29:28;;;;;;;8.82;5.13;;;12.90;99.90;;;;;;4882098;29;20206;-74
2021/10/13 11:32:08;;;;;;;5.60;4.07;;;14.10;99.90;;;;;;4893262;29;20217;-73
2021/10/13 11:34:36;;;;;;;6.10;4.30;;;15.20;99.90;;;;;;4878349;29;20219;-72
2021/10/13 11:37:03;;;;;;;4.03;3.63;;;16.00;99.90;;;;;;4877968;29;20204;-73
2021/10/13 11:39:32;;;;;;;6.70;3.47;;;16.50;99.90;;;;;;4878042;29;20463;-73
2021/10/13 11:42:01;;;;;;;6.30;3.37;;;16.80;99.90;;;;;;4878323;29;20479;-73
2021/10/13 11:44:29;;;;;;;3.73;3.23;;;17.20;99.90;;;;;;4877904;29;20865;-72
2021/10/13 11:47:03;;;;;;;6.40;3.30;;;17.30;99.90;;;;;;4877864;29;20483;-72
2021/10/13 11:49:31;;;;;;;2.50;2.27;;;17.00;99.90;;;;;;4878357;29;20472;-73
2021/10/13 11:52:09;;;;;;;3.30;2.10;;;16.10;99.90;;;;;;4876740;29;20466;-71
2021/10/13 11:54:36;;;;;;;2.60;2.00;;;15.10;99.90;;;;;;4874358;29;20601;-73
2021/10/13 11:57:04;;;;;;;2.70;1.67;;;14.10;99.90;;;;;;4895835;29;20473;-73
2021/10/13 11:59:31;;;;;;;2.37;1.53;;;13.20;99.90;;;;;;4897104;29;20482;-73
2021/10/13 12:02:14;;;;;;;3.83;1.50;;;12.50;99.90;;;;;;4896877;29;20500;-73
2021/10/13 12:04:52;;;;;;;1.30;1.20;;;11.80;99.90;;;;;;4896255;29;20494;-73
2021/10/13 12:07:21;;;;;;;4.78;2.05;;;11.50;99.90;;;;;;4896725;29;20474;-72
2021/10/13 12:09:49;;;;;;;1.42;1.33;;;11.30;99.90;;;;;;4896252;29;20264;-73
2021/10/13 12:12:17;;;;;;;2.10;1.50;;;11.10;99.90;;;;;;4897396;29;20214;-72
2021/10/13 12:14:45;;;;;;;2.20;1.50;;;11.00;99.90;;;;;;4896294;29;20230;-73
2021/10/13 12:17:32;;;;;;;1.90;1.52;;;10.80;99.90;;;;;;4896310;29;20210;-73
2021/10/13 12:20:00;;;;;;;1.80;1.38;;;10.70;99.90;;;;;;4896408;29;20686;-73
2021/10/13 12:22:44;;;;;;;1.65;1.42;;;10.60;99.90;;;;;;4896155;29;20218;-73
2021/10/13 12:25:23;;;;;;;2.55;1.55;;;10.60;99.90;;;;;;4896010;29;20226;-73
2021/10/13 12:27:51;;;;;;;2.15;1.30;;;10.60;99.90;;;;;;4895336;29;20253;-73
2021/10/13 12:30:29;;;;;;;1.25;1.10;;;10.60;99.90;;;;;;4896504;29;20210;-73
2021/10/13 12:33:04;;;;;;;2.88;1.40;;;10.60;99.90;;;;;;4896154;29;20242;-73
2021/10/13 12:35:31;;;;;;;1.67;1.25;;;10.80;99.90;;;;;;4895596;29;20234;-73
2021/10/13 12:37:58;;;;;;;1.70;1.50;;;11.20;99.90;;;;;;4895584;29;20221;-72
2021/10/13 12:40:25;;;;;;;2.95;1.55;;;11.80;99.90;;;;;;4895964;29;20218;-72
2021/10/13 12:42:55;;;;;;;2.25;1.63;;;12.60;99.90;;;;;;4895646;29;20215;-73
2021/10/13 12:45:25;;;;;;;2.42;1.58;;;13.10;99.90;;;;;;4895351;29;20687;-73
2021/10/13 12:48:13;;;;;;;2.33;1.67;;;13.20;99.90;;;;;;4894516;29;20214;-73
2021/10/13 12:50:40;;;;;;;3.03;1.65;;;13.10;99.90;;;;;;4895492;29;20240;-73
2021/10/13 12:53:06;;;;;;;2.40;1.60;;;12.70;99.90;;;;;;4895384;29;20579;-72
2021/10/13 12:55:33;;;;;;;2.57;1.60;;;12.70;99.90;;;;;;4895130;29;20229;-73
2021/10/13 12:58:01;;;;;;;1.52;1.42;;;13.00;99.90;;;;;;4895166;29;20478;-73
2021/10/13 13:00:28;;;;;;;1.48;1.30;;;13.00;99.90;;;;;;4894972;29;20217;-73
2021/10/13 13:02:54;;;;;;;3.42;2.08;;;12.90;99.90;;;;;;4878929;29;20590;-73
2021/10/13 13:05:21;;;;;;;2.80;1.70;;;13.10;99.90;;;;;;4876152;29;20231;-72